Time;durP1;ratioP1;P1;durP2;ratioP2;P2;SDS_P1;SDS_P2;PMS_P1;PMS_P2;Temp;Humidity;BMP_temperature;BMP_pressure;BME280_temperature;BME280_humidity;BME280_pressure;Samples;Min_cycle;Max_cycle;Signal;HPM_P1;HPM_P2
2023/08/15 00:01:48;;;;;;;10.90;4.22;;;;;;;18.83;80.55;101307.00;6100076;19;20035;-73
2023/08/15 00:03:56;;;;;;;14.45;4.28;;;;;;;18.82;80.59;101313.28;6097837;19;20039;-73
2023/08/15 00:06:01;;;;;;;12.43;4.05;;;;;;;18.76;81.23;101308.38;6089438;19;20002;-73
2023/08/15 00:08:09;;;;;;;13.10;3.97;;;;;;;18.77;80.94;101304.78;6097860;19;20019;-73
2023/08/15 00:10:14;;;;;;;11.43;4.18;;;;;;;18.85;81.07;101304.22;6098557;19;20861;-73
2023/08/15 00:12:19;;;;;;;13.48;4.68;;;;;;;18.75;81.59;101301.34;6095847;19;20126;-73
2023/08/15 00:14:24;;;;;;;16.27;4.53;;;;;;;18.69;82.24;101301.72;6102775;19;20010;-75
2023/08/15 00:16:30;;;;;;;10.50;4.18;;;;;;;18.73;82.01;101297.91;6097535;19;20122;-73
2023/08/15 00:18:32;;;;;;;12.57;3.97;;;;;;;18.65;82.68;101305.56;6101940;19;20432;-75
2023/08/15 00:20:37;;;;;;;;;;;;;;;18.67;82.76;101300.13;6098569;19;20428;-74
2023/08/15 00:22:43;;;;;;;8.43;3.63;;;;;;;18.69;82.98;101291.06;6098605;19;20263;-74
2023/08/15 00:24:53;;;;;;;11.38;4.20;;;;;;;18.71;83.32;101289.16;6101657;19;20014;-74
2023/08/15 00:26:58;;;;;;;13.65;3.83;;;;;;;18.69;83.51;101304.38;6097074;19;20007;-74
2023/08/15 00:29:03;;;;;;;11.85;3.88;;;;;;;18.74;84.03;101306.75;6098484;19;20018;-75
2023/08/15 00:31:09;;;;;;;9.60;3.70;;;;;;;18.77;84.50;101309.22;6100999;19;20035;-75
2023/08/15 00:33:14;;;;;;;9.05;3.17;;;;;;;18.70;85.12;101308.78;6095924;19;20003;-75
2023/08/15 00:35:20;;;;;;;10.52;3.05;;;;;;;18.68;85.09;101310.69;6098701;19;20472;-75
2023/08/15 00:37:25;;;;;;;11.45;3.30;;;;;;;18.69;85.38;101323.00;6097920;19;20257;-75
2023/08/15 00:39:30;;;;;;;14.77;3.65;;;;;;;18.71;86.12;101320.25;6096833;19;20037;-76
2023/08/15 00:41:39;;;;;;;14.50;3.80;;;;;;;18.64;86.07;101314.47;6101634;19;20074;-74
2023/08/15 00:43:44;;;;;;;11.35;3.10;;;;;;;18.55;86.49;101318.63;6096367;19;20003;-74
2023/08/15 00:45:52;;;;;;;10.93;2.97;;;;;;;18.61;86.72;101315.53;6100620;19;20006;-74
2023/08/15 00:47:58;;;;;;;12.68;2.85;;;;;;;18.62;86.88;101311.09;6099456;19;20110;-73
2023/08/15 00:50:02;;;;;;;14.98;3.45;;;;;;;18.62;87.83;101311.09;6097937;19;20068;-75
2023/08/15 00:52:08;;;;;;;15.32;4.35;;;;;;;18.63;87.77;101315.44;6095888;19;20014;-75
2023/08/15 00:54:13;;;;;;;11.38;3.38;;;;;;;18.57;88.75;101321.19;6098328;19;20011;-76
2023/08/15 00:56:21;;;;;;;12.27;3.28;;;;;;;18.55;88.20;101325.75;6102326;19;20511;-75
2023/08/15 00:58:31;;;;;;;9.65;3.22;;;;;;;18.56;88.81;101322.13;6100767;19;20085;-76
2023/08/15 01:00:34;;;;;;;10.90;3.20;;;;;;;18.49;90.08;101323.50;6100371;19;20554;-75
2023/08/15 01:02:40;;;;;;;14.18;3.78;;;;;;;18.47;90.02;101328.91;6101238;19;20090;-76
2023/08/15 01:04:49;;;;;;;12.43;3.38;;;;;;;18.49;89.55;101320.84;6103054;19;20015;-74
2023/08/15 01:06:51;;;;;;;11.57;3.03;;;;;;;18.44;90.33;101315.81;6102945;19;20048;-75
2023/08/15 01:09:01;;;;;;;15.00;4.85;;;;;;;18.42;91.16;101317.72;6105124;19;20040;-76
2023/08/15 01:11:07;;;;;;;11.77;4.03;;;;;;;18.36;91.38;101320.81;6100930;19;20502;-75
2023/08/15 01:13:16;;;;;;;11.02;3.90;;;;;;;18.33;92.26;101308.56;6103739;19;20366;-74
2023/08/15 01:15:28;;;;;;;15.52;4.10;;;;;;;18.30;92.05;101305.22;6099458;19;20037;-73
2023/08/15 01:17:43;;;;;;;10.10;3.35;;;;;;;18.26;92.16;101299.25;6103341;19;20013;-73
2023/08/15 01:19:54;;;;;;;13.93;4.28;;;;;;;18.24;92.20;101303.81;6099462;19;20416;-73
2023/08/15 01:22:01;;;;;;;13.03;3.90;;;;;;;18.20;93.27;101299.66;6093338;19;20019;-74
2023/08/15 01:24:10;;;;;;;16.63;4.10;;;;;;;18.24;93.55;101306.47;6098762;19;20006;-74
2023/08/15 01:26:15;;;;;;;12.82;4.00;;;;;;;18.23;92.91;101298.63;6097094;19;20051;-72
2023/08/15 01:28:20;;;;;;;15.73;4.00;;;;;;;18.26;93.00;101306.38;6095281;19;20523;-73
2023/08/15 01:30:26;;;;;;;16.08;4.15;;;;;;;18.24;93.75;101310.94;6097028;19;20003;-72
2023/08/15 01:32:39;;;;;;;12.65;4.30;;;;;;;18.20;93.83;101310.31;6093102;19;20015;-72
2023/08/15 01:34:51;;;;;;;14.23;4.00;;;;;;;18.13;94.90;101311.66;6098727;19;20014;-74
2023/08/15 01:37:09;;;;;;;13.88;3.80;;;;;;;18.10;94.86;101314.50;6097835;19;20034;-74
2023/08/15 01:39:23;;;;;;;16.08;3.72;;;;;;;18.10;96.13;101319.84;6096890;19;20475;-75
2023/08/15 01:41:31;;;;;;;17.05;4.72;;;;;;;18.07;96.46;101320.03;6099005;19;20394;-74
2023/08/15 01:43:39;;;;;;;14.98;3.70;;;;;;;18.16;96.98;101314.09;6095199;19;20011;-74
2023/08/15 01:45:45;;;;;;;12.95;3.83;;;;;;;18.18;96.37;101307.72;6097524;19;20007;-76
2023/08/15 01:47:50;;;;;;;14.60;3.72;;;;;;;18.16;97.84;101314.94;6095701;19;20054;-75
2023/08/15 01:49:55;;;;;;;9.98;3.50;;;;;;;18.16;98.12;101309.63;6097043;19;20010;-75
2023/08/15 01:52:00;;;;;;;11.77;3.67;;;;;;;18.26;97.55;101317.88;6096571;19;20051;-75
2023/08/15 01:54:06;;;;;;;11.90;3.53;;;;;;;18.30;97.14;101321.19;6095650;19;20013;-74
2023/08/15 01:56:15;;;;;;;9.93;3.35;;;;;;;18.32;97.31;101312.16;6104509;19;20013;-74
2023/08/15 01:58:20;;;;;;;11.32;3.33;;;;;;;18.32;98.19;101322.78;6105884;19;20023;-74
2023/08/15 02:00:25;;;;;;;8.20;3.78;;;;;;;18.37;98.29;101323.34;6103999;19;20019;-76
2023/08/15 02:02:30;;;;;;;11.68;4.05;;;;;;;18.37;98.28;101319.84;6105016;19;20282;-74
2023/08/15 02:04:35;;;;;;;10.50;3.58;;;;;;;18.38;98.93;101321.56;6106139;19;20011;-74
2023/08/15 02:06:41;;;;;;;9.88;3.97;;;;;;;18.35;98.63;101330.59;6106883;19;20011;-75
2023/08/15 02:08:43;;;;;;;9.18;3.00;;;;;;;18.36;99.08;101328.78;6103178;19;20014;-75
2023/08/15 02:10:48;;;;;;;10.15;3.03;;;;;;;18.35;98.73;101330.59;6102548;19;20010;-74
2023/08/15 02:12:56;;;;;;;6.97;3.05;;;;;;;18.33;98.95;101332.50;6101830;19;20412;-74
2023/08/15 02:15:02;;;;;;;9.45;3.15;;;;;;;18.30;99.88;101326.50;6102067;19;20006;-74
2023/08/15 02:17:07;;;;;;;9.88;3.30;;;;;;;18.29;100.00;101325.66;6104241;19;20018;-74
2023/08/15 02:19:12;;;;;;;7.80;2.85;;;;;;;18.27;100.00;101314.25;6102608;19;20006;-75
2023/08/15 02:21:20;;;;;;;9.57;3.15;;;;;;;18.25;99.73;101316.19;6105635;19;20035;-74
2023/08/15 02:23:25;;;;;;;8.02;2.78;;;;;;;18.27;100.00;101326.72;6105618;19;20010;-75
2023/08/15 02:25:30;;;;;;;9.20;2.90;;;;;;;18.21;100.00;101328.81;6103838;19;20013;-74
2023/08/15 02:27:35;;;;;;;7.53;3.13;;;;;;;18.19;100.00;101330.75;6099327;19;20017;-73
2023/08/15 02:29:42;;;;;;;7.22;2.60;;;;;;;18.17;100.00;101334.44;6102676;19;20086;-74
2023/08/15 02:31:52;;;;;;;7.75;2.67;;;;;;;18.14;100.00;101334.63;6099231;19;20046;-74
2023/08/15 02:33:55;;;;;;;7.40;2.88;;;;;;;18.22;100.00;101332.34;6101514;19;20002;-73
2023/08/15 02:36:07;;;;;;;8.98;3.25;;;;;;;18.24;100.00;101335.75;6097530;19;20310;-74
2023/08/15 02:38:12;;;;;;;6.80;2.70;;;;;;;18.22;100.00;101327.03;6099122;19;20027;-73
2023/08/15 02:40:17;;;;;;;10.13;3.03;;;;;;;18.21;100.00;101342.13;6102072;19;20027;-74
2023/08/15 02:42:24;;;;;;;7.40;3.13;;;;;;;18.15;100.00;101339.00;6103133;19;20421;-72
2023/08/15 02:44:30;;;;;;;9.55;2.63;;;;;;;18.20;100.00;101352.88;6100077;19;20459;-73
2023/08/15 02:46:37;;;;;;;6.13;3.08;;;;;;;18.13;100.00;101359.53;6101801;19;20013;-73
2023/08/15 02:48:43;;;;;;;8.32;2.58;;;;;;;18.10;100.00;101357.06;6099896;19;20018;-73
2023/08/15 02:51:07;;;;;;;9.70;2.80;;;;;;;18.08;100.00;101356.31;6099547;19;20019;-73
2023/08/15 02:53:13;;;;;;;6.22;2.65;;;;;;;18.08;100.00;101359.81;6096186;19;20604;-73
2023/08/15 02:55:18;;;;;;;3.78;2.28;;;;;;;18.02;100.00;101360.22;6099964;19;20006;-73
2023/08/15 02:57:24;;;;;;;8.88;2.92;;;;;;;17.96;100.00;101364.13;6099860;19;20361;-73
2023/08/15 02:59:31;;;;;;;8.70;3.08;;;;;;;17.90;100.00;101372.47;6101646;19;20118;-75
2023/08/15 03:01:39;;;;;;;9.30;2.58;;;;;;;17.91;100.00;101368.88;6100804;19;20122;-76
2023/08/15 03:03:47;;;;;;;8.35;3.40;;;;;;;17.87;100.00;101369.16;6100555;19;20014;-75
2023/08/15 03:05:52;;;;;;;7.13;2.50;;;;;;;17.86;100.00;101372.78;6102457;19;20002;-74
2023/08/15 03:07:58;;;;;;;6.72;2.38;;;;;;;17.81;100.00;101373.06;6097825;19;19999;-73
2023/08/15 03:10:08;;;;;;;8.02;2.50;;;;;;;17.75;100.00;101374.25;6101816;19;20003;-74
2023/08/15 03:12:13;;;;;;;5.70;2.53;;;;;;;17.76;100.00;101369.78;6098899;19;20486;-74
2023/08/15 03:14:18;;;;;;;7.18;2.47;;;;;;;17.75;100.00;101362.78;6101972;19;20023;-74
2023/08/15 03:16:25;;;;;;;9.38;2.92;;;;;;;17.69;100.00;101365.78;6099607;19;20707;-74
2023/08/15 03:18:35;;;;;;;8.73;2.60;;;;;;;17.68;100.00;101358.78;6097793;19;20094;-75
2023/08/15 03:20:37;;;;;;;5.35;2.88;;;;;;;17.66;100.00;101360.69;6100697;19;20019;-74
2023/08/15 03:22:45;;;;;;;6.85;3.20;;;;;;;17.65;100.00;101365.16;6098766;19;20015;-74
2023/08/15 03:24:52;;;;;;;8.57;2.85;;;;;;;17.61;100.00;101363.63;6100765;19;20070;-74
2023/08/15 03:27:00;;;;;;;8.48;2.88;;;;;;;17.62;100.00;101373.31;6100903;19;20031;-74
2023/08/15 03:29:08;;;;;;;6.15;2.80;;;;;;;17.64;100.00;101367.88;6100446;19;20031;-74
2023/08/15 03:31:13;;;;;;;6.30;2.42;;;;;;;17.52;100.00;101370.34;6099663;19;20066;-74
2023/08/15 03:33:18;;;;;;;6.22;3.05;;;;;;;17.51;100.00;101371.31;6097404;19;20011;-76
2023/08/15 03:35:26;;;;;;;5.00;2.15;;;;;;;17.51;100.00;101371.31;6096631;19;20121;-74
2023/08/15 03:37:31;;;;;;;6.72;2.38;;;;;;;17.49;100.00;101378.53;6098218;19;20391;-74
2023/08/15 03:39:34;;;;;;;5.05;2.58;;;;;;;17.48;100.00;101378.59;6102014;19;20014;-74
2023/08/15 03:41:39;;;;;;;8.95;2.75;;;;;;;17.48;100.00;101376.81;6101140;19;20324;-75
2023/08/15 03:43:41;;;;;;;4.90;2.55;;;;;;;17.44;100.00;101374.44;6099016;19;20647;-75
2023/08/15 03:45:46;;;;;;;;;;;;;;;17.48;100.00;101381.25;6103295;19;20014;-73
2023/08/15 03:47:51;;;;;;;5.80;2.67;;;;;;;17.39;100.00;101384.50;6102619;19;20336;-76
2023/08/15 03:49:59;;;;;;;7.03;3.30;;;;;;;17.49;100.00;101399.78;6098076;19;20006;-74
2023/08/15 03:52:07;;;;;;;7.57;2.83;;;;;;;17.46;100.00;101401.78;6093091;19;20448;-74
2023/08/15 03:54:12;;;;;;;7.07;3.00;;;;;;;17.48;100.00;101405.16;6099874;19;20470;-75
2023/08/15 03:56:17;;;;;;;4.57;2.50;;;;;;;17.47;100.00;101412.28;6099819;19;20886;-74
2023/08/15 03:58:21;;;;;;;12.30;3.40;;;;;;;17.49;100.00;101409.56;6100803;19;20474;-75
2023/08/15 04:00:26;;;;;;;8.52;2.67;;;;;;;17.47;100.00;101403.47;6099071;19;20421;-74
2023/08/15 04:02:31;;;;;;;8.48;2.50;;;;;;;17.49;100.00;101398.94;6099299;19;20039;-74
2023/08/15 04:04:36;;;;;;;7.28;2.97;;;;;;;17.46;100.00;101404.44;6099899;19;20018;-75
2023/08/15 04:06:41;;;;;;;6.13;3.33;;;;;;;17.44;100.00;101395.69;6097487;19;20397;-75
2023/08/15 04:08:50;;;;;;;7.63;2.97;;;;;;;17.47;100.00;101401.66;6099158;19;20010;-74
2023/08/15 04:10:55;;;;;;;7.82;3.25;;;;;;;17.48;100.00;101402.50;6098609;19;20018;-74
2023/08/15 04:12:58;;;;;;;9.60;3.35;;;;;;;17.45;100.00;101402.72;6097990;19;20007;-74
2023/08/15 04:15:03;;;;;;;10.98;3.35;;;;;;;17.47;100.00;101401.66;6097271;19;20045;-74
2023/08/15 04:17:09;;;;;;;7.57;3.60;;;;;;;17.46;100.00;101399.13;6097995;19;20015;-74
2023/08/15 04:19:13;;;;;;;10.50;3.60;;;;;;;17.49;100.00;101394.47;6095599;19;20464;-75
2023/08/15 04:21:21;;;;;;;7.82;3.05;;;;;;;17.43;100.00;101389.53;6102818;19;20019;-75
2023/08/15 04:23:26;;;;;;;11.70;3.67;;;;;;;17.45;100.00;101392.06;6080193;19;20043;-74
2023/08/15 04:25:36;;;;;;;7.43;3.50;;;;;;;17.50;100.00;101388.19;6103020;19;20010;-75
2023/08/15 04:27:41;;;;;;;13.40;3.70;;;;;;;17.45;100.00;101387.63;6102594;19;20060;-74
2023/08/15 04:29:46;;;;;;;13.40;3.90;;;;;;;17.43;100.00;101386.88;6100150;19;20007;-74
2023/08/15 04:31:54;;;;;;;9.30;4.35;;;;;;;17.45;100.00;101386.75;6096205;19;20299;-72
2023/08/15 04:33:59;;;;;;;11.68;4.13;;;;;;;17.46;100.00;101384.03;6098824;19;21421;-72
2023/08/15 04:36:08;;;;;;;10.55;3.80;;;;;;;17.46;100.00;101392.00;6098175;19;20007;-73
2023/08/15 04:38:14;;;;;;;13.25;3.83;;;;;;;17.48;100.00;101387.44;6099255;19;20038;-73
2023/08/15 04:40:32;;;;;;;13.88;3.70;;;;;;;17.45;100.00;101379.63;6098034;19;20478;-74
2023/08/15 04:42:40;;;;;;;13.05;4.65;;;;;;;17.46;100.00;101383.19;6098707;19;20050;-73
2023/08/15 04:44:48;;;;;;;11.80;4.38;;;;;;;17.47;100.00;101380.41;6099020;19;20514;-74
2023/08/15 04:46:53;;;;;;;12.80;4.03;;;;;;;17.49;100.00;101377.66;6096235;19;20006;-74
2023/08/15 04:49:01;;;;;;;12.10;4.43;;;;;;;17.50;100.00;101384.69;6097521;19;20017;-73
2023/08/15 04:51:08;;;;;;;10.95;3.80;;;;;;;17.50;100.00;101382.88;6097274;19;20002;-73
2023/08/15 04:53:13;;;;;;;8.52;4.05;;;;;;;17.48;100.00;101384.78;6092333;19;20082;-73
2023/08/15 04:55:19;;;;;;;9.65;3.83;;;;;;;17.49;100.00;101389.16;6095626;19;20058;-73
2023/08/15 04:57:24;;;;;;;10.88;3.65;;;;;;;17.54;100.00;101395.03;6097147;19;20115;-72
2023/08/15 04:59:32;;;;;;;13.30;4.32;;;;;;;17.53;100.00;101403.09;6097093;19;20002;-74
2023/08/15 05:01:40;;;;;;;11.52;4.43;;;;;;;17.59;100.00;101405.41;6096760;19;20380;-73
2023/08/15 05:03:45;;;;;;;11.57;3.67;;;;;;;17.74;100.00;101406.25;6093991;19;20002;-73
2023/08/15 05:05:50;;;;;;;11.77;4.20;;;;;;;17.76;100.00;101402.53;6099733;19;21161;-73
2023/08/15 05:07:55;;;;;;;11.45;4.28;;;;;;;17.79;100.00;101404.19;6082177;19;20034;-74
2023/08/15 05:10:01;;;;;;;16.23;4.03;;;;;;;17.78;100.00;101416.59;6092750;19;20011;-73
2023/08/15 05:12:10;;;;;;;13.35;4.30;;;;;;;17.76;100.00;101415.84;6096366;19;20501;-74
2023/08/15 05:14:15;;;;;;;12.13;4.82;;;;;;;17.81;100.00;101420.06;6094590;19;20804;-74
2023/08/15 05:16:23;;;;;;;9.73;4.25;;;;;;;17.90;100.00;101422.97;6096363;19;20015;-74
2023/08/15 05:18:28;;;;;;;12.15;3.90;;;;;;;17.97;100.00;101426.97;6098581;19;20011;-74
2023/08/15 05:20:34;;;;;;;15.57;4.20;;;;;;;18.05;100.00;101423.00;6096978;19;20086;-74
2023/08/15 05:22:42;;;;;;;8.88;4.72;;;;;;;18.08;100.00;101425.47;6093664;19;20010;-74
2023/08/15 05:24:47;;;;;;;11.98;4.32;;;;;;;18.10;100.00;101421.75;6091995;19;20039;-74
2023/08/15 05:26:55;;;;;;;11.40;4.07;;;;;;;18.12;100.00;101425.19;6098789;19;20034;-73
2023/08/15 05:29:00;;;;;;;9.43;4.03;;;;;;;18.19;100.00;101423.84;6095253;19;20039;-73
2023/08/15 05:31:05;;;;;;;11.52;3.95;;;;;;;18.23;100.00;101429.81;6096568;19;20181;-74
2023/08/15 05:33:13;;;;;;;12.82;4.78;;;;;;;18.28;100.00;101440.19;6096357;19;20081;-75
2023/08/15 05:35:17;;;;;;;13.02;4.45;;;;;;;18.32;100.00;101444.34;6095523;19;20010;-76
2023/08/15 05:37:23;;;;;;;13.23;4.95;;;;;;;18.34;100.00;101451.25;6096002;19;20017;-76
2023/08/15 05:39:28;;;;;;;10.05;3.45;;;;;;;18.36;100.00;101444.06;6096395;19;20009;-75
2023/08/15 05:41:36;;;;;;;15.65;3.92;;;;;;;18.35;100.00;101450.34;6098422;19;20013;-74
2023/08/15 05:43:41;;;;;;;9.00;4.45;;;;;;;18.37;100.00;101445.75;6096938;19;20324;-74
2023/08/15 05:45:49;;;;;;;12.57;3.78;;;;;;;18.38;100.00;101447.47;6096824;19;20345;-76
2023/08/15 05:47:55;;;;;;;8.55;3.63;;;;;;;18.46;100.00;101451.44;6100285;19;20007;-75
2023/08/15 05:50:03;;;;;;;10.05;4.07;;;;;;;18.51;100.00;101446.66;6097628;19;20014;-74
2023/08/15 05:52:09;;;;;;;13.07;3.60;;;;;;;18.49;100.00;101449.44;6095858;19;20018;-75
2023/08/15 05:54:14;;;;;;;7.47;3.50;;;;;;;18.55;100.00;101448.19;6096825;19;20095;-74
2023/08/15 05:56:19;;;;;;;18.05;4.20;;;;;;;18.54;100.00;101449.16;6096201;19;20479;-75
2023/08/15 05:58:24;;;;;;;11.63;4.63;;;;;;;18.61;100.00;101453.97;6095026;19;20007;-74
2023/08/15 06:00:29;;;;;;;11.73;3.72;;;;;;;18.71;100.00;101448.91;6092674;19;20593;-75
2023/08/15 06:02:36;;;;;;;14.27;3.97;;;;;;;18.78;100.00;101452.91;6095638;19;20060;-74
2023/08/15 06:04:41;;;;;;;14.48;4.47;;;;;;;18.85;99.66;101458.69;6093776;19;20011;-74
2023/08/15 06:06:46;;;;;;;10.52;3.80;;;;;;;19.01;99.43;101455.84;6097840;19;20546;-74
2023/08/15 06:08:51;;;;;;;8.93;3.70;;;;;;;19.14;99.15;101472.78;6095439;19;20018;-74
2023/08/15 06:10:56;;;;;;;12.93;4.60;;;;;;;19.33;97.82;101471.53;6097302;19;20600;-74
2023/08/15 06:13:01;;;;;;;10.35;4.03;;;;;;;19.65;96.44;101466.69;6098102;19;20103;-74
2023/08/15 06:15:09;;;;;;;16.35;4.60;;;;;;;19.76;95.32;101472.16;6097456;19;20324;-74
2023/08/15 06:17:17;;;;;;;10.93;4.47;;;;;;;20.07;93.15;101476.19;6096716;19;20006;-74
2023/08/15 06:19:22;;;;;;;11.07;4.00;;;;;;;20.34;91.75;101476.03;6092029;19;20010;-73
2023/08/15 06:21:30;;;;;;;10.30;3.95;;;;;;;20.55;90.69;101484.34;6095411;19;20380;-73
2023/08/15 06:23:38;;;;;;;9.45;4.13;;;;;;;20.69;88.31;101491.34;6097229;19;20357;-73
2023/08/15 06:25:43;;;;;;;12.55;4.20;;;;;;;20.46;89.07;101493.00;6094233;19;20003;-74
2023/08/15 06:27:48;;;;;;;11.18;3.70;;;;;;;20.80;88.00;101494.13;6095482;19;20021;-72
2023/08/15 06:29:53;;;;;;;10.48;3.65;;;;;;;20.66;87.32;101498.75;6095157;19;20015;-72
2023/08/15 06:32:01;;;;;;;12.70;3.80;;;;;;;20.84;86.08;101505.44;6089547;19;20494;-74
2023/08/15 06:34:09;;;;;;;10.48;4.10;;;;;;;21.17;85.82;101507.44;6094521;19;20270;-74
2023/08/15 06:36:14;;;;;;;10.85;3.95;;;;;;;21.01;84.90;101517.53;6096557;19;20014;-74
2023/08/15 06:38:19;;;;;;;7.95;3.38;;;;;;;21.37;84.55;101515.75;6100576;19;20778;-73
2023/08/15 06:40:31;;;;;;;11.82;3.97;;;;;;;21.16;84.37;101515.56;6102304;19;20074;-74
2023/08/15 06:42:36;;;;;;;8.27;3.88;;;;;;;21.00;84.36;101516.69;6103357;19;20088;-72
2023/08/15 06:44:45;;;;;;;10.30;3.92;;;;;;;20.87;84.42;101523.91;6102880;19;20082;-74
2023/08/15 06:46:52;;;;;;;13.07;4.60;;;;;;;20.86;85.30;101524.88;6102668;19;20010;-73
2023/08/15 06:48:57;;;;;;;11.70;4.10;;;;;;;20.49;85.59;101527.50;6059316;19;22343;-74
2023/08/15 06:51:04;;;;;;;11.32;4.40;;;;;;;20.28;86.21;101526.34;6101460;19;20542;-72
2023/08/15 06:53:20;;;;;;;10.75;4.10;;;;;;;19.86;87.32;101523.91;6088415;19;20006;-72
2023/08/15 06:55:25;;;;;;;10.63;4.22;;;;;;;19.76;88.51;101529.97;6092583;19;20046;-73
2023/08/15 06:57:33;;;;;;;11.35;3.70;;;;;;;19.72;89.35;101535.50;6098448;19;20039;-74
2023/08/15 06:59:38;;;;;;;9.20;3.78;;;;;;;20.26;87.41;101528.28;6098331;19;20015;-75
2023/08/15 07:01:44;;;;;;;13.18;4.75;;;;;;;20.44;86.51;101534.13;6097121;19;20127;-72
2023/08/15 07:03:55;;;;;;;10.02;4.20;;;;;;;20.56;86.25;101538.59;6080030;19;20011;-72
2023/08/15 07:06:00;;;;;;;9.82;3.78;;;;;;;20.96;84.40;101538.41;6100869;19;20035;-73
2023/08/15 07:08:07;;;;;;;9.73;3.95;;;;;;;21.53;82.54;101528.84;6093124;19;20007;-72
2023/08/15 07:10:14;;;;;;;11.48;4.45;;;;;;;21.81;81.09;101523.09;6101153;19;20472;-74
2023/08/15 07:12:19;;;;;;;11.10;3.88;;;;;;;21.67;80.90;101521.50;6101200;19;20086;-73
2023/08/15 07:14:27;;;;;;;7.75;4.25;;;;;;;22.04;80.47;101534.72;6093974;19;20746;-73
2023/08/15 07:16:35;;;;;;;9.48;3.90;;;;;;;21.66;81.58;101534.97;6100851;19;21700;-74
2023/08/15 07:18:40;;;;;;;7.63;3.90;;;;;;;21.40;82.33;101535.13;6098677;19;20013;-73
2023/08/15 07:20:46;;;;;;;8.50;3.83;;;;;;;21.31;83.24;101542.97;6099566;19;20463;-73
2023/08/15 07:22:51;;;;;;;11.95;4.50;;;;;;;21.11;84.08;101544.44;6092815;19;20430;-73
2023/08/15 07:24:56;;;;;;;10.18;3.70;;;;;;;21.18;83.84;101537.69;6096446;19;20392;-73
2023/08/15 07:27:01;;;;;;;8.65;3.70;;;;;;;21.52;82.93;101533.38;6098659;19;20046;-74
2023/08/15 07:29:06;;;;;;;9.63;4.07;;;;;;;21.71;81.05;101538.16;6093943;19;20003;-76
2023/08/15 07:31:15;;;;;;;12.35;4.55;;;;;;;21.53;82.02;101531.53;6098827;19;20006;-74
2023/08/15 07:33:20;;;;;;;11.82;4.60;;;;;;;21.61;80.72;101537.16;6095872;19;20003;-73
2023/08/15 07:35:25;;;;;;;11.57;5.28;;;;;;;21.44;81.22;101541.97;6101450;19;20022;-75
2023/08/15 07:37:27;;;;;;;11.80;4.90;;;;;;;21.21;81.33;101540.97;6099669;19;20024;-74
2023/08/15 07:39:33;;;;;;;9.45;4.68;;;;;;;21.01;82.12;101542.47;6094959;19;20288;-76
2023/08/15 07:41:38;;;;;;;11.55;4.93;;;;;;;21.06;82.43;101547.44;6094988;19;20426;-74
2023/08/15 07:43:43;;;;;;;10.25;4.70;;;;;;;21.21;81.60;101540.97;6094700;19;20364;-73
2023/08/15 07:45:48;;;;;;;13.63;4.45;;;;;;;21.38;80.96;101547.78;6091501;19;20051;-74
2023/08/15 07:47:58;;;;;;;8.95;4.35;;;;;;;21.35;81.57;101549.78;6097193;19;20014;-75
2023/08/15 07:50:17;;;;;;;9.07;4.80;;;;;;;21.30;81.44;101559.97;6094928;19;20013;-74
2023/08/15 07:52:22;;;;;;;7.32;4.13;;;;;;;21.38;81.64;101558.47;6094737;19;20789;-74
2023/08/15 07:54:27;;;;;;;9.00;4.45;;;;;;;21.55;80.69;101556.34;6096506;19;20029;-73
2023/08/15 07:56:36;;;;;;;10.50;5.13;;;;;;;21.74;80.03;101562.00;6095812;19;20031;-73
2023/08/15 07:58:41;;;;;;;11.65;5.13;;;;;;;21.69;79.83;101559.66;6092914;19;20007;-74
2023/08/15 08:00:46;;;;;;;8.95;4.35;;;;;;;21.49;81.05;101568.38;6091503;19;20009;-74
2023/08/15 08:02:52;;;;;;;11.27;4.60;;;;;;;21.45;80.42;101565.03;6097330;19;20016;-76
2023/08/15 08:04:58;;;;;;;8.95;3.55;;;;;;;21.33;81.02;101560.59;6097091;19;20007;-75
2023/08/15 08:07:03;;;;;;;11.07;4.15;;;;;;;21.40;80.94;101569.88;6098391;19;20012;-74
2023/08/15 08:09:09;;;;;;;7.88;3.53;;;;;;;21.49;81.43;101573.72;6093274;19;20007;-75
2023/08/15 08:11:13;;;;;;;10.43;4.07;;;;;;;;;;6093311;19;20415;-74
2023/08/15 08:13:19;;;;;;;8.75;3.85;;;;;;;21.41;80.87;101571.59;6097651;19;20006;-75
2023/08/15 08:15:25;;;;;;;9.10;4.38;;;;;;;21.35;81.98;101576.50;6096411;19;20428;-75
2023/08/15 08:17:30;;;;;;;7.28;4.00;;;;;;;21.20;82.05;101575.84;6098382;19;20557;-74
2023/08/15 08:19:35;;;;;;;9.20;4.30;;;;;;;21.26;82.95;101580.72;6102445;19;20789;-72
2023/08/15 08:21:43;;;;;;;8.50;4.10;;;;;;;21.25;83.50;101589.72;6102410;19;20471;-74
2023/08/15 08:23:48;;;;;;;10.75;4.50;;;;;;;20.76;86.34;101583.44;6103563;19;20034;-72
2023/08/15 08:25:51;;;;;;;11.80;4.40;;;;;;;20.99;87.32;101579.13;6099403;19;20494;-72
2023/08/15 08:27:56;;;;;;;11.00;4.30;;;;;;;20.61;89.32;101593.38;6087677;19;20321;-75
2023/08/15 08:30:01;;;;;;;8.73;4.10;;;;;;;20.90;89.05;101592.28;6096574;19;20014;-74
2023/08/15 08:32:07;;;;;;;7.95;4.32;;;;;;;20.92;87.47;101593.88;6100086;19;20046;-73
2023/08/15 08:34:13;;;;;;;8.27;3.80;;;;;;;20.83;88.40;101599.91;6100665;19;20006;-73
2023/08/15 08:36:19;;;;;;;9.80;4.22;;;;;;;20.92;87.36;101595.69;6104302;19;20007;-73
2023/08/15 08:38:29;;;;;;;8.20;4.30;;;;;;;20.93;87.07;101595.59;6103690;19;20478;-73
2023/08/15 08:40:35;;;;;;;7.82;3.83;;;;;;;21.01;86.04;101603.91;6103865;19;20538;-74
2023/08/15 08:42:40;;;;;;;10.52;4.13;;;;;;;21.23;85.09;101600.53;6100839;19;20014;-73
2023/08/15 08:44:46;;;;;;;8.70;4.15;;;;;;;21.18;85.45;101601.84;6101330;19;20019;-73
2023/08/15 08:46:54;;;;;;;9.75;4.22;;;;;;;21.00;84.98;101612.03;6103703;19;20347;-74
2023/08/15 08:49:00;;;;;;;10.18;3.97;;;;;;;20.83;86.27;101605.25;6101637;19;20090;-72
2023/08/15 08:51:06;;;;;;;7.35;3.65;;;;;;;20.78;86.55;101605.56;6101715;19;20394;-75
2023/08/15 08:53:28;;;;;;;7.35;3.83;;;;;;;20.75;86.60;101613.81;6065147;19;20013;-74
2023/08/15 08:55:38;;;;;;;9.25;3.92;;;;;;;20.73;87.40;101612.19;6081508;19;20086;-72
2023/08/15 08:57:52;;;;;;;7.35;3.47;;;;;;;20.70;87.09;101617.75;6099539;19;19998;-74
2023/08/15 08:59:58;;;;;;;9.60;3.42;;;;;;;20.71;86.55;101612.28;6100182;19;20010;-73
2023/08/15 09:02:04;;;;;;;8.20;3.92;;;;;;;20.83;86.12;101615.94;6098348;19;20491;-72
2023/08/15 09:04:09;;;;;;;6.45;3.28;;;;;;;21.01;85.26;101619.94;6097624;19;20006;-74
2023/08/15 09:06:15;;;;;;;8.20;3.05;;;;;;;21.21;84.49;101615.81;6099693;19;20423;-74
2023/08/15 09:08:32;;;;;;;6.32;3.17;;;;;;;20.91;84.69;101616.22;6100645;19;20605;-73
2023/08/15 09:10:37;;;;;;;5.97;3.05;;;;;;;20.84;85.54;101622.97;6100784;19;20042;-74
2023/08/15 09:12:43;;;;;;;9.82;3.80;;;;;;;20.94;84.94;101616.00;6096254;19;20343;-72
2023/08/15 09:15:14;;;;;;;6.82;3.20;;;;;;;21.09;84.94;101621.19;6093240;19;20118;-71
2023/08/15 09:17:26;;;;;;;6.28;3.03;;;;;;;20.83;85.10;101611.44;6101703;19;20002;-75
2023/08/15 09:19:43;;;;;;;7.97;3.20;;;;;;;21.11;84.24;101614.78;6101639;19;20082;-72
2023/08/15 09:21:48;;;;;;;6.22;3.28;;;;;;;21.18;84.09;101626.72;6101071;19;20025;-71
2023/08/15 09:26:21;;;;;;;4.00;2.47;;;;;;;21.55;82.89;101617.84;6097953;19;20018;-71
2023/08/15 09:28:29;;;;;;;3.72;2.33;;;;;;;21.65;82.22;101624.22;6056800;19;20468;-72
2023/08/15 09:30:36;;;;;;;4.07;2.60;;;;;;;21.71;81.86;101623.75;6099825;19;20015;-71
2023/08/15 09:32:42;;;;;;;5.15;2.20;;;;;;;21.78;81.80;101629.53;6094428;19;20415;-71
2023/08/15 09:35:18;;;;;;;3.70;2.20;;;;;;;21.66;81.38;101636.63;6100876;19;20015;-72
2023/08/15 09:37:24;;;;;;;3.58;2.00;;;;;;;21.32;83.21;101633.72;6101253;19;20543;-71
2023/08/15 09:39:49;;;;;;;3.40;2.03;;;;;;;21.87;81.75;101632.34;6086040;19;20360;-72
2023/08/15 09:41:55;;;;;;;4.18;2.03;;;;;;;22.37;80.15;101633.97;6100243;19;20013;-74
2023/08/15 09:44:01;;;;;;;2.20;1.58;;;;;;;22.48;79.36;101628.63;6099352;19;20499;-74
2023/08/15 09:46:07;;;;;;;2.70;1.90;;;;;;;22.55;78.87;101629.84;6100194;19;20244;-72
2023/08/15 09:48:16;;;;;;;2.08;1.60;;;;;;;22.37;78.39;101631.28;6080775;19;20031;-73